Etusivu
METAR-TAF:

METAR-TAF

Lentoasemat :

Kairouan, Tunisia

Leveyspiiri: 35-40N, Pituuspiiri: 010-06E, korkeus merenpinnasta: 60 m

Tämänhetkinen sää

Tämä raportti tehtiin 15 minuuttia sitten, kello 12.00 UTC
Tuuli 6 kn pohjoisesta
Lämpötila 20°C
Kosteus 43%
Ilmanpaine 1026 hPa
Näkyvyys 10 km tai enemmän
ei pilviä alle 1500 m:ssä eikä cumulonimbus-pilviä

METAR: DTTK 181200Z 35006KT CAVOK 20/07 Q1026

Aika: 13:15 (12:15 UTC)


TAF: puuttuu

Säähavainnot ja -ennusteet yli 4000 lentoasemalta (METAR- ja TAF-raportit).

Käytössä olevat sääasemat on merkitty karttaan keltaisilla ja punaisilla pisteillä.

Aseta hiiri pisteen päälle nähdäksesi sääaseman nimen.

Klikkaa sitten nähdäksesi säähavainnot ja -ennusteet.

Kartan vaihtaminen: klikkaa mustalla rastilla varustettuja vihreitä pisteitä, niin voit zoomata sisään; viivalla varustettua vihreää pistettä, niin voit zoomata ulos tai vihreitä nuolia, niin pääset viereisille kartoille.


METAR-TAF: